Time;durP1;ratioP1;P1;durP2;ratioP2;P2;SDS_P1;SDS_P2;PMS_P1;PMS_P2;Temp;Humidity;BMP_temperature;BMP_pressure;BME280_temperature;BME280_humidity;BME280_pressure;Samples;Min_cycle;Max_cycle;Signal;HPM_P1;HPM_P2
2021/10/16 00:00:19;;;;;;;4.20;2.63;;;;;;;26.23;25.99;98295.47;5080070;28;20036;-81
2021/10/16 00:02:47;;;;;;;4.85;2.92;;;;;;;25.83;26.43;98299.72;5084464;28;20107;-80
2021/10/16 00:05:13;;;;;;;3.92;2.88;;;;;;;26.02;26.24;98299.59;5081191;28;20032;-81
2021/10/16 00:07:39;;;;;;;5.15;2.90;;;;;;;26.05;26.35;98304.34;5075752;28;20028;-82
2021/10/16 00:10:07;;;;;;;3.72;2.75;;;;;;;26.15;26.01;98307.34;5079012;28;20074;-82
2021/10/16 00:12:33;;;;;;;4.65;3.15;;;;;;;26.14;25.83;98306.53;5085488;28;20097;-81
2021/10/16 00:15:00;;;;;;;4.80;2.83;;;;;;;26.22;25.73;98296.69;5075684;28;20039;-80
2021/10/16 00:17:26;;;;;;;4.95;3.65;;;;;;;26.38;25.58;98305.09;5081097;28;20039;-80
2021/10/16 00:19:52;;;;;;;5.35;3.20;;;;;;;26.21;25.79;98320.44;5077595;28;20025;-80
2021/10/16 00:22:20;;;;;;;4.53;3.28;;;;;;;26.27;26.01;98320.69;5079248;28;20028;-80
2021/10/16 00:24:48;;;;;;;4.63;2.90;;;;;;;26.58;25.67;98331.06;5077974;28;20021;-81
2021/10/16 00:27:14;;;;;;;4.10;2.70;;;;;;;26.56;25.67;98324.28;5084683;28;20039;-81
2021/10/16 00:29:41;;;;;;;4.50;3.13;;;;;;;26.53;25.45;98326.00;5074646;28;20255;-81
2021/10/16 00:32:07;;;;;;;3.05;2.05;;;;;;;26.76;25.30;98324.97;5079169;28;20036;-80
2021/10/16 00:34:33;;;;;;;3.42;2.38;;;;;;;26.38;25.77;98326.81;5076939;28;20073;-80
2021/10/16 00:36:59;;;;;;;4.97;2.60;;;;;;;26.25;26.07;98329.59;5082036;28;20081;-80
2021/10/16 00:39:26;;;;;;;4.32;3.08;;;;;;;26.56;25.62;98322.28;5083628;28;20036;-80
2021/10/16 00:41:52;;;;;;;4.30;2.65;;;;;;;26.67;25.19;98325.59;5079053;28;20616;-80
2021/10/16 00:44:24;;;;;;;6.38;2.83;;;;;;;26.16;25.98;98318.19;5080582;28;20351;-80
2021/10/16 00:46:56;;;;;;;4.32;2.60;;;;;;;26.34;25.79;98317.69;5081808;28;20437;-80
2021/10/16 00:49:23;;;;;;;6.20;3.28;;;;;;;26.32;25.76;98318.13;5083521;28;20038;-81
2021/10/16 00:51:50;;;;;;;4.88;2.60;;;;;;;26.25;25.81;98320.34;5082063;28;20044;-81
2021/10/16 00:54:18;;;;;;;5.38;3.05;;;;;;;26.37;25.71;98323.19;5086362;28;20103;-80
2021/10/16 00:56:47;;;;;;;2.97;2.30;;;;;;;25.65;26.66;98330.31;5077808;28;20039;-80
2021/10/16 00:59:13;;;;;;;4.35;3.28;;;;;;;25.76;26.48;98334.44;5077812;28;20100;-80
2021/10/16 01:01:40;;;;;;;3.97;2.53;;;;;;;26.25;25.93;98332.41;5078078;28;20044;-80
2021/10/16 01:04:06;;;;;;;4.25;2.70;;;;;;;26.54;25.11;98333.19;5082550;28;20035;-80
2021/10/16 01:06:34;;;;;;;4.55;2.50;;;;;;;26.51;25.06;98334.06;5073932;28;20029;-81
2021/10/16 01:09:01;;;;;;;2.88;2.50;;;;;;;26.63;24.84;98344.59;5074806;28;20035;-80
2021/10/16 01:11:48;;;;;;;2.55;2.22;;;;;;;25.26;26.30;98334.78;5089784;28;20398;-80
2021/10/16 01:14:15;;;;;;;2.35;2.15;;;;;;;25.05;26.37;98345.72;5087666;28;20036;-80
2021/10/16 01:16:42;;;;;;;2.90;1.90;;;;;;;25.64;25.79;98349.19;5082163;28;20111;-80
2021/10/16 01:19:12;;;;;;;4.25;1.80;;;;;;;25.12;26.00;98349.16;5078490;28;20366;-81
2021/10/16 01:21:43;;;;;;;4.22;2.28;;;;;;;25.17;25.98;98348.66;5081883;28;20386;-80
2021/10/16 01:24:11;;;;;;;4.10;2.42;;;;;;;23.93;27.29;98343.81;5078355;28;20044;-80
2021/10/16 01:26:39;;;;;;;2.80;1.52;;;;;;;24.57;26.79;98346.28;5077989;28;20037;-80
2021/10/16 01:29:07;;;;;;;3.75;1.80;;;;;;;24.37;26.48;98339.84;5079488;28;20028;-80
2021/10/16 01:31:33;;;;;;;2.53;2.03;;;;;;;24.64;26.52;98346.16;5083640;28;20053;-80
2021/10/16 01:34:01;;;;;;;3.85;1.60;;;;;;;25.01;25.83;98342.19;5080042;28;20374;-80
2021/10/16 01:36:44;;;;;;;2.08;1.75;;;;;;;24.92;25.81;98350.41;5080241;28;20385;-80
2021/10/16 01:39:12;;;;;;;2.08;1.55;;;;;;;25.58;24.71;98350.94;5088173;28;20465;-80
2021/10/16 01:41:38;;;;;;;3.08;1.80;;;;;;;25.30;25.13;98357.19;5084836;28;20058;-80
2021/10/16 01:44:09;;;;;;;2.70;1.40;;;;;;;25.23;25.13;98351.72;5078439;28;20040;-80
2021/10/16 01:46:36;;;;;;;4.47;2.28;;;;;;;25.25;25.34;98358.50;5085249;28;20031;-80
2021/10/16 01:49:10;;;;;;;5.45;2.78;;;;;;;25.04;25.15;98352.56;5075353;28;20033;-80
2021/10/16 01:51:37;;;;;;;6.03;2.85;;;;;;;25.68;24.37;98349.91;5080835;28;20043;-79
2021/10/16 01:54:04;;;;;;;5.22;2.53;;;;;;;25.95;24.06;98355.28;5074966;28;20111;-80
2021/10/16 01:56:30;;;;;;;5.07;2.13;;;;;;;26.11;23.67;98358.09;5084921;28;20046;-80
2021/10/16 01:58:56;;;;;;;5.05;2.22;;;;;;;26.49;22.79;98361.13;5081193;28;20035;-79
2021/10/16 02:01:22;;;;;;;3.83;2.58;;;;;;;26.79;22.35;98363.53;5078605;28;20048;-79
2021/10/16 02:03:48;;;;;;;3.95;1.75;;;;;;;27.09;21.86;98363.06;5076084;28;20043;-79
2021/10/16 02:06:14;;;;;;;4.50;2.00;;;;;;;27.19;21.79;98361.16;5077386;28;20093;-80
2021/10/16 02:08:41;;;;;;;3.72;1.83;;;;;;;26.99;22.01;98366.16;5078116;28;20449;-81
2021/10/16 02:11:07;;;;;;;4.13;1.88;;;;;;;27.06;22.03;98368.78;5081114;28;20444;-80
2021/10/16 02:13:33;;;;;;;5.05;2.33;;;;;;;27.15;21.54;98375.34;5076783;28;20098;-80
2021/10/16 02:15:59;;;;;;;2.45;1.77;;;;;;;27.15;21.87;98368.91;5078426;28;20465;-80
2021/10/16 02:18:25;;;;;;;3.10;1.83;;;;;;;27.16;21.50;98376.13;5078851;28;20036;-81
2021/10/16 02:20:51;;;;;;;2.20;1.63;;;;;;;27.01;22.19;98377.78;5079836;28;20048;-80
2021/10/16 02:23:17;;;;;;;4.18;1.90;;;;;;;26.87;22.20;98381.00;5074915;28;20043;-80
2021/10/16 02:25:43;;;;;;;2.50;1.83;;;;;;;26.65;22.08;98384.38;5078046;28;20032;-80
2021/10/16 02:28:09;;;;;;;3.00;1.60;;;;;;;26.62;22.06;98385.28;5081383;28;20028;-80
2021/10/16 02:30:35;;;;;;;1.70;1.25;;;;;;;26.76;22.02;98381.31;5079109;28;20455;-80
2021/10/16 02:33:01;;;;;;;2.72;1.50;;;;;;;26.79;21.66;98382.47;5081720;28;20143;-80
2021/10/16 02:35:27;;;;;;;2.53;1.65;;;;;;;26.86;21.55;98390.72;5082863;28;20043;-80
2021/10/16 02:37:53;;;;;;;1.80;1.27;;;;;;;26.94;21.40;98387.22;5072631;28;20032;-80
2021/10/16 02:40:19;;;;;;;1.88;1.20;;;;;;;26.98;20.77;98393.53;5073342;28;20512;-80
2021/10/16 02:42:45;;;;;;;2.88;1.35;;;;;;;26.95;20.97;98390.84;5079879;28;20051;-80
2021/10/16 02:45:11;;;;;;;2.80;1.42;;;;;;;26.90;21.00;98400.63;5076418;28;20032;-80
2021/10/16 02:47:38;;;;;;;1.85;1.50;;;;;;;26.80;21.21;98401.72;5077633;28;20029;-80
2021/10/16 02:50:04;;;;;;;3.75;1.23;;;;;;;26.74;21.22;98401.47;5080916;28;20093;-80
2021/10/16 02:52:30;;;;;;;2.20;1.40;;;;;;;26.59;21.22;98405.88;5088643;28;20457;-80
2021/10/16 02:54:56;;;;;;;2.50;1.52;;;;;;;26.65;21.05;98408.97;5075518;28;20118;-80
2021/10/16 02:57:22;;;;;;;3.00;1.80;;;;;;;26.63;21.54;98409.41;5077102;28;20051;-80
2021/10/16 02:59:48;;;;;;;2.10;1.67;;;;;;;26.58;22.06;98406.34;5083881;28;20055;-80
2021/10/16 03:02:14;;;;;;;3.10;1.30;;;;;;;26.33;22.23;98409.00;5077004;28;20052;-80
2021/10/16 03:04:40;;;;;;;3.20;1.85;;;;;;;26.51;21.79;98412.94;5079484;28;20047;-80
2021/10/16 03:07:06;;;;;;;2.63;2.00;;;;;;;26.54;22.13;98414.06;5076041;28;20025;-80
2021/10/16 03:09:32;;;;;;;3.42;1.80;;;;;;;26.43;22.41;98417.19;5073835;28;20119;-80
2021/10/16 03:11:58;;;;;;;2.80;2.03;;;;;;;26.45;22.68;98411.91;5073812;28;20628;-80
2021/10/16 03:14:24;;;;;;;3.28;1.90;;;;;;;26.36;22.76;98411.75;5075284;28;20500;-80
2021/10/16 03:16:50;;;;;;;2.38;1.98;;;;;;;26.13;22.72;98411.94;5080020;28;20024;-80
2021/10/16 03:19:16;;;;;;;2.85;1.73;;;;;;;26.47;22.26;98414.25;5078946;28;20035;-81
2021/10/16 03:21:42;;;;;;;3.83;2.03;;;;;;;26.69;21.87;98424.53;5078453;28;20401;-80
2021/10/16 03:24:09;;;;;;;2.78;2.10;;;;;;;26.79;21.72;98433.16;5081342;28;20028;-80
2021/10/16 03:26:35;;;;;;;2.28;1.60;;;;;;;26.63;21.98;98422.69;5088410;28;20385;-80
2021/10/16 03:29:01;;;;;;;3.60;2.33;;;;;;;26.56;21.92;98429.28;5078328;28;20047;-80
2021/10/16 03:31:27;;;;;;;3.13;2.22;;;;;;;26.49;21.96;98431.53;5076644;28;20027;-81
2021/10/16 03:33:53;;;;;;;1.83;1.33;;;;;;;26.39;22.57;98421.31;5078689;28;20226;-81
2021/10/16 03:36:19;;;;;;;3.20;1.70;;;;;;;26.32;22.49;98425.13;5081749;28;20047;-81
2021/10/16 03:38:45;;;;;;;4.68;3.03;;;;;;;24.88;24.53;98431.94;5080479;28;20544;-81
2021/10/16 03:41:11;;;;;;;3.58;2.17;;;;;;;24.96;24.51;98426.97;5079148;28;20047;-81
2021/10/16 03:43:37;;;;;;;3.92;2.33;;;;;;;24.25;25.84;98433.09;5083496;28;20056;-81
2021/10/16 03:46:03;;;;;;;2.65;2.13;;;;;;;23.67;26.72;98431.56;5083660;28;20083;-81
2021/10/16 03:48:29;;;;;;;4.10;2.25;;;;;;;23.57;26.91;98447.31;5085890;28;20448;-81
2021/10/16 03:50:55;;;;;;;2.67;1.73;;;;;;;23.99;26.31;98431.88;5080873;28;20047;-81
2021/10/16 03:53:21;;;;;;;3.28;1.70;;;;;;;23.67;26.67;98439.97;5082707;28;20052;-81
2021/10/16 03:55:48;;;;;;;3.17;1.92;;;;;;;24.44;25.57;98435.94;5084738;28;20481;-81
2021/10/16 03:58:14;;;;;;;5.18;2.40;;;;;;;24.97;24.71;98434.19;5081552;28;20036;-81
2021/10/16 04:00:40;;;;;;;4.05;2.67;;;;;;;24.88;24.93;98440.34;5082467;28;20505;-81
2021/10/16 04:03:06;;;;;;;3.05;1.38;;;;;;;24.17;25.53;98440.81;5080384;28;20039;-81
2021/10/16 04:05:33;;;;;;;3.97;2.75;;;;;;;24.32;25.68;98441.38;5085346;28;20032;-81
2021/10/16 04:08:00;;;;;;;6.93;2.33;;;;;;;24.02;25.70;98442.22;5082814;28;20036;-81
2021/10/16 04:10:26;;;;;;;4.05;2.30;;;;;;;24.20;25.43;98442.00;5087338;28;20044;-81
2021/10/16 04:12:52;;;;;;;5.10;1.85;;;;;;;24.43;25.40;98434.38;5078615;28;20033;-81
2021/10/16 04:15:18;;;;;;;3.72;1.98;;;;;;;24.38;25.32;98451.69;5081548;28;20038;-81
2021/10/16 04:17:48;;;;;;;4.55;2.45;;;;;;;24.07;25.64;98446.59;5079021;28;20393;-81
2021/10/16 04:20:15;;;;;;;2.83;2.10;;;;;;;24.38;25.38;98448.88;5080212;28;20830;-81
2021/10/16 04:22:41;;;;;;;2.45;1.90;;;;;;;24.72;24.80;98437.44;5088052;28;20028;-80
2021/10/16 04:25:07;;;;;;;3.15;2.05;;;;;;;25.17;23.98;98444.19;5083704;28;20108;-80
2021/10/16 04:27:33;;;;;;;6.18;1.92;;;;;;;25.13;24.03;98448.31;5085604;28;20032;-80
2021/10/16 04:29:59;;;;;;;3.15;1.80;;;;;;;25.46;23.57;98440.81;5080792;28;20042;-80
2021/10/16 04:32:25;;;;;;;3.45;1.92;;;;;;;25.36;23.69;98451.81;5079368;28;20124;-80
2021/10/16 04:34:51;;;;;;;4.47;2.03;;;;;;;25.62;23.43;98461.34;5077026;28;20047;-80
2021/10/16 04:37:18;;;;;;;3.15;1.98;;;;;;;25.92;23.19;98446.19;5078840;28;20392;-80
2021/10/16 04:39:44;;;;;;;2.05;1.38;;;;;;;26.35;22.37;98457.22;5080575;28;20434;-80
2021/10/16 04:42:12;;;;;;;2.45;1.50;;;;;;;26.85;21.45;98453.91;5085103;28;20067;-79
2021/10/16 04:44:39;;;;;;;1.83;1.63;;;;;;;27.14;21.00;98454.72;5084854;28;20024;-80
2021/10/16 04:47:06;;;;;;;2.63;1.50;;;;;;;27.09;20.88;98458.88;5075832;28;20055;-80
2021/10/16 04:49:34;;;;;;;2.63;1.60;;;;;;;26.69;21.74;98457.53;5084911;28;20063;-80
2021/10/16 04:52:02;;;;;;;2.97;1.60;;;;;;;26.33;21.96;98462.50;5087873;28;20127;-80
2021/10/16 04:54:30;;;;;;;3.72;1.80;;;;;;;26.29;22.13;98461.78;5075124;28;20508;-80
2021/10/16 04:56:56;;;;;;;2.90;1.55;;;;;;;26.11;22.67;98461.44;5103253;28;20115;-80
2021/10/16 04:59:24;;;;;;;1.92;1.48;;;;;;;25.91;22.78;98467.09;5088123;28;20040;-80
2021/10/16 05:01:51;;;;;;;1.98;1.60;;;;;;;25.58;23.39;98474.66;5094172;28;20028;-80
2021/10/16 05:04:17;;;;;;;2.15;1.58;;;;;;;25.46;23.56;98466.13;5085205;28;20034;-80
2021/10/16 05:06:43;;;;;;;8.68;3.00;;;;;;;25.54;23.54;98464.72;5081582;28;20029;-80
2021/10/16 05:09:09;;;;;;;2.78;1.73;;;;;;;25.85;22.85;98466.03;5083411;28;20424;-80
2021/10/16 05:11:35;;;;;;;3.65;1.52;;;;;;;26.27;22.39;98467.88;5081911;28;20082;-80
2021/10/16 05:14:01;;;;;;;3.15;1.63;;;;;;;26.49;22.38;98471.72;5082990;28;20101;-80
2021/10/16 05:16:28;;;;;;;4.30;1.63;;;;;;;26.49;22.28;98476.59;5082751;28;20036;-81
2021/10/16 05:18:54;;;;;;;2.25;1.40;;;;;;;26.33;22.26;98485.81;5088700;28;20063;-81
2021/10/16 05:21:20;;;;;;;3.42;1.90;;;;;;;26.29;22.63;98490.75;5086575;28;20028;-81
2021/10/16 05:23:46;;;;;;;3.35;1.63;;;;;;;26.46;22.37;98489.53;5082583;28;20047;-80
2021/10/16 05:26:12;;;;;;;3.38;2.08;;;;;;;26.40;22.59;98494.09;5086269;28;20067;-81
2021/10/16 05:28:38;;;;;;;2.85;1.95;;;;;;;26.47;22.54;98502.34;5086564;28;20543;-81
2021/10/16 05:31:05;;;;;;;1.88;1.60;;;;;;;26.40;22.55;98494.09;5090333;28;20522;-81
2021/10/16 05:33:31;;;;;;;2.60;1.60;;;;;;;26.54;22.49;98505.00;5083906;28;20040;-80
2021/10/16 05:35:57;;;;;;;5.22;1.55;;;;;;;26.85;22.22;98508.25;5076812;28;20075;-80
2021/10/16 05:38:23;;;;;;;2.08;1.55;;;;;;;27.19;21.72;98502.88;5090935;28;20546;-80
2021/10/16 05:40:49;;;;;;;2.97;1.90;;;;;;;27.57;21.28;98502.25;5079423;28;20039;-80
2021/10/16 05:43:16;;;;;;;5.25;1.73;;;;;;;27.71;21.06;98502.63;5089303;28;20064;-79
2021/10/16 05:45:42;;;;;;;3.80;2.22;;;;;;;28.03;20.49;98510.13;5078656;28;20032;-79
2021/10/16 05:48:08;;;;;;;4.40;3.33;;;;;;;28.22;20.43;98508.31;5078937;28;20036;-80
2021/10/16 05:50:34;;;;;;;2.70;2.30;;;;;;;28.37;20.54;98512.28;5085679;28;20101;-79
2021/10/16 05:53:00;;;;;;;2.25;2.05;;;;;;;28.58;20.02;98514.41;5086140;28;20083;-79
2021/10/16 05:55:26;;;;;;;2.65;1.65;;;;;;;28.68;20.23;98518.94;5083106;28;20427;-79
2021/10/16 05:57:52;;;;;;;5.40;1.85;;;;;;;28.57;20.33;98524.13;5092937;28;20450;-80
2021/10/16 06:00:18;;;;;;;3.20;2.25;;;;;;;28.30;20.48;98518.16;5087436;28;20047;-80
2021/10/16 06:02:44;;;;;;;3.42;1.83;;;;;;;27.87;20.78;98522.28;5093471;28;20034;-80
2021/10/16 06:05:10;;;;;;;1.90;1.70;;;;;;;26.94;22.28;98533.78;5087355;28;20046;-79
2021/10/16 06:07:36;;;;;;;7.95;4.65;;;;;;;26.87;22.39;98533.16;5086492;28;20489;-80
2021/10/16 06:10:04;;;;;;;5.50;3.25;;;;;;;26.88;22.55;98531.94;5093935;28;20055;-80
2021/10/16 06:12:30;;;;;;;3.50;2.00;;;;;;;27.13;22.42;98534.88;5088751;28;20035;-80
2021/10/16 06:14:56;;;;;;;4.28;2.40;;;;;;;27.48;21.80;98538.78;5087779;28;20700;-80
2021/10/16 06:17:22;;;;;;;5.75;3.00;;;;;;;27.79;21.62;98539.88;5091525;28;20543;-80
2021/10/16 06:19:48;;;;;;;5.97;3.42;;;;;;;27.81;21.58;98546.66;5091584;28;20396;-80
2021/10/16 06:22:14;;;;;;;5.47;3.47;;;;;;;27.59;22.04;98550.53;5082003;28;20429;-80
2021/10/16 06:24:40;;;;;;;9.32;5.10;;;;;;;27.54;21.83;98551.88;5083921;28;20048;-79
2021/10/16 06:27:06;;;;;;;4.45;3.10;;;;;;;27.58;21.87;98555.41;5077494;28;20031;-80
2021/10/16 06:29:32;;;;;;;5.82;3.22;;;;;;;27.52;21.97;98562.81;5075003;28;20181;-80
2021/10/16 06:31:58;;;;;;;5.22;2.75;;;;;;;27.56;21.95;98566.34;5074616;28;20039;-80
2021/10/16 06:34:24;;;;;;;5.30;2.58;;;;;;;27.85;21.81;98564.28;5073136;28;20036;-80
2021/10/16 06:36:50;;;;;;;3.17;1.88;;;;;;;28.22;21.16;98574.06;5086567;28;20385;-80
2021/10/16 06:39:16;;;;;;;4.47;2.95;;;;;;;28.33;21.18;98563.25;5083126;28;20476;-80
2021/10/16 06:41:42;;;;;;;3.78;3.13;;;;;;;28.13;21.68;98568.28;5078204;28;20035;-80
2021/10/16 06:44:08;;;;;;;4.22;3.03;;;;;;;27.96;21.95;98569.59;5074554;28;20071;-80
2021/10/16 06:46:34;;;;;;;4.13;2.53;;;;;;;28.10;21.63;98571.25;5084277;28;20470;-81
2021/10/16 06:49:00;;;;;;;5.57;3.58;;;;;;;28.39;21.40;98561.44;5082693;28;20384;-80
2021/10/16 06:51:26;;;;;;;4.45;2.40;;;;;;;28.73;21.01;98569.22;5083960;28;20036;-81
2021/10/16 06:53:52;;;;;;;3.53;2.75;;;;;;;28.88;20.74;98578.81;5078471;28;20052;-81
2021/10/16 06:56:18;;;;;;;4.07;2.40;;;;;;;29.13;20.58;98567.44;5081945;28;20028;-81
2021/10/16 06:58:44;;;;;;;2.22;1.98;;;;;;;29.19;20.41;98562.03;5080119;28;20032;-81
2021/10/16 07:01:10;;;;;;;4.30;2.38;;;;;;;29.22;20.46;98561.13;5081621;28;20028;-81
2021/10/16 07:03:36;;;;;;;4.47;2.58;;;;;;;28.97;20.75;98572.47;5079984;28;20113;-81
2021/10/16 07:06:02;;;;;;;3.42;2.55;;;;;;;28.71;21.24;98572.50;5076085;28;20024;-82
2021/10/16 07:08:29;;;;;;;3.28;2.13;;;;;;;28.45;21.57;98578.63;5075135;28;20040;-81
2021/10/16 07:10:58;;;;;;;5.47;2.63;;;;;;;28.31;21.92;98577.00;5076118;28;20115;-81
2021/10/16 07:13:25;;;;;;;6.40;3.13;;;;;;;27.72;22.24;98574.75;5077273;28;20032;-81
2021/10/16 07:15:51;;;;;;;6.60;4.00;;;;;;;26.75;24.23;98574.13;5070185;28;20043;-80
2021/10/16 07:18:17;;;;;;;4.43;3.00;;;;;;;27.05;23.70;98578.59;5084920;28;20052;-81
2021/10/16 07:20:43;;;;;;;3.88;2.63;;;;;;;27.41;23.24;98573.63;5080831;28;20028;-81
2021/10/16 07:23:09;;;;;;;4.40;2.85;;;;;;;26.84;23.84;98579.16;5081678;28;20044;-81
2021/10/16 07:25:36;;;;;;;3.28;2.17;;;;;;;27.43;22.71;98576.78;5081316;28;20078;-81
2021/10/16 07:28:02;;;;;;;4.40;2.67;;;;;;;27.51;23.07;98580.19;5087939;28;20063;-81
2021/10/16 07:30:28;;;;;;;6.80;2.33;;;;;;;27.99;22.62;98585.66;5084271;28;20024;-82
2021/10/16 07:32:54;;;;;;;3.20;2.25;;;;;;;28.05;22.06;98586.72;5079798;28;20033;-82
2021/10/16 07:35:20;;;;;;;5.63;2.17;;;;;;;28.25;22.46;98592.13;5081029;28;20032;-82
2021/10/16 07:37:46;;;;;;;2.25;1.92;;;;;;;28.38;21.80;98588.09;5081315;28;20020;-81
2021/10/16 07:40:12;;;;;;;3.45;2.10;;;;;;;28.04;21.83;98591.56;5079462;28;20039;-81
2021/10/16 07:42:38;;;;;;;5.03;2.13;;;;;;;27.60;22.37;98594.44;5085722;28;20105;-81
2021/10/16 07:45:05;;;;;;;9.90;3.58;;;;;;;25.80;23.82;98596.75;5079511;28;20024;-81
2021/10/16 07:47:31;;;;;;;3.15;2.42;;;;;;;25.37;24.98;98596.75;5078625;28;20036;-80
2021/10/16 07:49:57;;;;;;;4.75;2.50;;;;;;;25.44;26.04;98601.47;5086827;28;20036;-81
2021/10/16 07:52:23;;;;;;;4.65;2.10;;;;;;;25.67;25.03;98597.84;5087741;28;20045;-81
2021/10/16 07:54:49;;;;;;;6.88;2.55;;;;;;;26.13;25.18;98606.13;5084241;28;20075;-81
2021/10/16 07:57:15;;;;;;;3.65;1.98;;;;;;;26.71;23.96;98607.19;5081833;28;20070;-81
2021/10/16 07:59:42;;;;;;;2.47;2.08;;;;;;;27.09;23.24;98601.84;5076999;28;20044;-81
2021/10/16 08:02:08;;;;;;;5.13;1.98;;;;;;;27.40;22.66;98608.69;5077007;28;20112;-81
2021/10/16 08:04:34;;;;;;;3.88;1.98;;;;;;;27.07;23.25;98605.09;5075054;28;20036;-81
2021/10/16 08:07:00;;;;;;;5.28;1.92;;;;;;;26.82;23.77;98612.59;5080996;28;20031;-81
2021/10/16 08:09:26;;;;;;;4.35;2.25;;;;;;;26.97;23.07;98605.38;5076264;28;20028;-81
2021/10/16 08:11:52;;;;;;;2.63;1.50;;;;;;;26.80;22.86;98617.88;5074481;28;20062;-81
2021/10/16 08:14:18;;;;;;;4.68;2.05;;;;;;;25.90;23.61;98614.63;5076148;28;20036;-81
2021/10/16 08:16:44;;;;;;;2.83;1.80;;;;;;;25.77;24.59;98622.13;5076315;28;20131;-81
2021/10/16 08:19:10;;;;;;;3.53;1.48;;;;;;;25.62;24.50;98624.44;5077005;28;20039;-81
2021/10/16 08:21:36;;;;;;;6.28;2.47;;;;;;;26.06;24.19;98625.94;5075921;28;20042;-82
2021/10/16 08:24:03;;;;;;;5.75;2.20;;;;;;;25.94;23.81;98621.78;5073664;28;20029;-82
2021/10/16 08:26:29;;;;;;;4.78;2.03;;;;;;;26.08;23.74;98618.66;5076089;28;20032;-82
2021/10/16 08:28:55;;;;;;;4.68;1.63;;;;;;;26.84;22.99;98627.81;5072226;28;20485;-82
2021/10/16 08:31:21;;;;;;;6.57;2.70;;;;;;;26.45;23.17;98619.47;5075346;28;20039;-81
2021/10/16 08:33:47;;;;;;;4.28;1.75;;;;;;;26.35;23.13;98621.31;5076541;28;20036;-81
2021/10/16 08:36:13;;;;;;;4.63;1.67;;;;;;;26.75;22.82;98619.19;5076974;28;20478;-81
2021/10/16 08:38:41;;;;;;;2.95;1.45;;;;;;;26.84;23.20;98619.38;5075125;28;20116;-81
2021/10/16 08:41:11;;;;;;;2.03;1.10;;;;;;;26.14;24.58;98621.78;5074723;28;20029;-81
2021/10/16 08:43:39;;;;;;;2.40;1.42;;;;;;;26.93;23.13;98628.03;5075478;28;20035;-81
2021/10/16 08:46:05;;;;;;;2.53;1.38;;;;;;;26.35;23.35;98624.13;5082799;28;20028;-81
2021/10/16 08:48:32;;;;;;;3.03;1.60;;;;;;;27.36;22.45;98619.25;5083212;28;20036;-82
2021/10/16 08:50:59;;;;;;;4.80;1.85;;;;;;;26.81;22.50;98625.91;5078449;28;20074;-81
2021/10/16 08:53:25;;;;;;;4.15;1.90;;;;;;;27.61;21.98;98615.78;5075004;28;20048;-82
2021/10/16 08:55:53;;;;;;;3.08;1.35;;;;;;;27.29;21.44;98613.78;5080756;28;20036;-80
2021/10/16 08:58:20;;;;;;;6.00;1.75;;;;;;;26.91;21.97;98624.81;5071864;28;20037;-80
2021/10/16 09:00:51;;;;;;;4.05;1.55;;;;;;;27.19;21.28;98626.94;5073105;28;20043;-80
2021/10/16 09:03:45;;;;;;;4.13;1.50;;;;;;;27.52;21.19;98624.06;5074797;28;20044;-82
2021/10/16 09:06:25;;;;;;;3.53;2.25;;;;;;;27.55;21.10;98626.81;5075035;28;20071;-81
2021/10/16 09:08:51;;;;;;;3.33;1.42;;;;;;;27.41;21.71;98630.03;5075155;28;20024;-82
2021/10/16 09:11:22;;;;;;;2.40;1.00;;;;;;;27.90;21.24;98622.19;5074645;28;20044;-82
2021/10/16 09:13:50;;;;;;;2.30;1.88;;;;;;;26.69;21.45;98629.38;5071958;28;20443;-81
2021/10/16 09:16:38;;;;;;;3.67;1.50;;;;;;;27.71;20.74;98626.75;5071963;28;20060;-83
2021/10/16 09:19:16;;;;;;;7.65;1.88;;;;;;;27.67;21.14;98637.38;5069912;28;20509;-82
2021/10/16 09:21:47;;;;;;;4.20;1.67;;;;;;;28.00;20.28;98640.91;5070945;28;20127;-83
2021/10/16 09:24:19;;;;;;;2.83;1.25;;;;;;;26.77;22.14;98633.63;5070325;28;20123;-83
2021/10/16 09:26:54;;;;;;;3.67;1.60;;;;;;;25.98;22.12;98641.38;5073836;28;20036;-82
2021/10/16 09:29:22;;;;;;;1.83;1.52;;;;;;;27.06;21.30;98647.81;5074644;28;20388;-82
2021/10/16 09:31:53;;;;;;;6.13;1.83;;;;;;;27.39;20.81;98635.31;5071701;28;20032;-82
2021/10/16 09:34:24;;;;;;;2.55;1.77;;;;;;;27.72;20.57;98644.50;5073669;28;20972;-82
2021/10/16 09:36:51;;;;;;;3.80;1.52;;;;;;;27.94;20.87;98649.09;5068775;28;20032;-82
2021/10/16 09:39:18;;;;;;;2.90;1.20;;;;;;;26.36;22.62;98639.78;5070475;28;20028;-82
2021/10/16 09:41:46;;;;;;;3.40;1.48;;;;;;;25.75;23.14;98650.69;5072191;28;20051;-82
2021/10/16 09:44:23;;;;;;;5.97;2.78;;;;;;;26.81;21.90;98644.81;5070659;28;20515;-81
2021/10/16 09:47:00;;;;;;;9.30;2.72;;;;;;;27.70;21.48;98647.75;5072194;28;20036;-82
2021/10/16 09:49:35;;;;;;;7.43;2.75;;;;;;;28.15;21.21;98652.53;5075104;28;20044;-81
2021/10/16 09:52:07;;;;;;;4.97;1.73;;;;;;;28.43;20.77;98648.88;5075558;28;20083;-82
2021/10/16 09:54:35;;;;;;;2.38;1.25;;;;;;;28.13;21.25;98644.53;5077637;28;20036;-82
2021/10/16 09:57:08;;;;;;;2.80;1.80;;;;;;;27.63;21.60;98644.34;5071329;28;20025;-81
2021/10/16 09:59:36;;;;;;;5.30;2.13;;;;;;;28.42;20.98;98648.09;5071613;28;20067;-81
2021/10/16 10:02:03;;;;;;;5.40;1.95;;;;;;;28.27;20.72;98643.31;5073704;28;20044;-81
2021/10/16 10:04:32;;;;;;;4.32;2.13;;;;;;;28.31;20.52;98649.66;5076906;28;20059;-82
2021/10/16 10:07:02;;;;;;;2.78;1.70;;;;;;;28.03;20.41;98649.25;5083770;28;20101;-82
2021/10/16 10:09:32;;;;;;;4.97;2.92;;;;;;;28.08;20.42;98647.91;5072592;28;20473;-82
2021/10/16 10:12:00;;;;;;;4.15;2.13;;;;;;;27.01;21.88;98654.78;5068441;28;20029;-82
2021/10/16 10:14:27;;;;;;;3.70;1.70;;;;;;;26.92;21.41;98648.16;5071545;28;20032;-83
2021/10/16 10:16:59;;;;;;;3.85;1.80;;;;;;;27.51;20.81;98645.06;5072556;28;20167;-81
2021/10/16 10:19:27;;;;;;;2.70;1.80;;;;;;;27.22;20.73;98642.16;5071972;28;21202;-82
2021/10/16 10:21:53;;;;;;;3.80;1.38;;;;;;;27.84;20.34;98641.69;5074704;28;20040;-82
2021/10/16 10:24:19;;;;;;;2.50;1.55;;;;;;;28.13;20.33;98647.34;5073987;28;20472;-82
2021/10/16 10:26:49;;;;;;;3.47;1.45;;;;;;;28.14;19.84;98643.31;5071370;28;20036;-82
2021/10/16 10:29:20;;;;;;;4.13;1.63;;;;;;;26.60;21.98;98640.47;5073106;28;20140;-83
2021/10/16 10:31:53;;;;;;;5.07;1.80;;;;;;;26.59;22.08;98636.84;5070764;28;20063;-83
2021/10/16 10:34:32;;;;;;;2.50;1.73;;;;;;;26.83;22.03;98645.19;5071460;28;20029;-83
2021/10/16 10:37:02;;;;;;;4.88;2.10;;;;;;;26.56;22.18;98639.72;5075314;28;20027;-82
2021/10/16 10:39:34;;;;;;;6.53;2.38;;;;;;;26.40;22.18;98632.06;5072350;28;20040;-82
2021/10/16 10:42:12;;;;;;;3.83;2.15;;;;;;;26.46;22.55;98641.59;5075608;28;20043;-82
2021/10/16 10:44:42;;;;;;;5.65;1.98;;;;;;;26.29;22.49;98639.97;5064209;28;24026;-83
2021/10/16 10:47:30;;;;;;;5.90;2.15;;;;;;;26.60;21.89;98635.63;5079043;28;20028;-83
2021/10/16 10:50:05;;;;;;;5.22;2.47;;;;;;;26.46;22.25;98637.97;5107863;28;20063;-83
2021/10/16 10:52:56;;;;;;;2.90;1.83;;;;;;;26.23;22.97;98633.25;5093998;28;20044;-83
2021/10/16 10:55:22;;;;;;;4.88;2.00;;;;;;;25.99;23.21;98638.16;5074852;28;20067;-82
2021/10/16 10:57:57;;;;;;;4.13;1.85;;;;;;;26.55;22.54;98621.25;5084114;28;20032;-82
2021/10/16 11:00:33;;;;;;;5.07;2.65;;;;;;;26.11;22.76;98624.69;5080024;28;20085;-81
2021/10/16 11:02:59;;;;;;;4.70;2.05;;;;;;;26.50;22.24;98633.03;5081680;28;20434;-82
2021/10/16 11:05:32;;;;;;;3.05;2.03;;;;;;;26.44;22.25;98629.94;5091976;28;20028;-82
2021/10/16 11:08:11;;;;;;;5.55;2.63;;;;;;;26.91;21.98;98630.47;5074207;28;20121;-83
2021/10/16 11:10:38;;;;;;;3.83;2.47;;;;;;;26.62;22.16;98618.28;5076637;28;20032;-82
2021/10/16 11:13:17;;;;;;;4.95;3.13;;;;;;;26.77;21.92;98627.22;5084293;28;20044;-83
2021/10/16 11:15:45;;;;;;;4.25;2.13;;;;;;;26.95;21.89;98625.56;5078300;28;20505;-83
2021/10/16 11:18:14;;;;;;;4.72;2.15;;;;;;;26.39;22.89;98622.03;5077572;28;20064;-82
2021/10/16 11:20:40;;;;;;;6.07;3.25;;;;;;;27.00;22.15;98622.19;5074702;28;20116;-82
2021/10/16 11:23:16;;;;;;;8.52;3.40;;;;;;;26.69;22.29;98618.91;5084501;28;20028;-81
2021/10/16 11:25:58;;;;;;;11.00;3.90;;;;;;;27.14;22.02;98612.59;5081128;28;20036;-82
2021/10/16 11:28:26;;;;;;;4.57;2.88;;;;;;;27.00;21.59;98610.13;5079349;28;20029;-82
2021/10/16 11:30:56;;;;;;;5.65;2.20;;;;;;;27.07;21.38;98609.97;5077913;28;20033;-82
2021/10/16 11:33:26;;;;;;;8.35;2.97;;;;;;;26.32;21.85;98608.13;5088120;28;20056;-82
2021/10/16 11:35:57;;;;;;;6.70;3.08;;;;;;;25.22;23.86;98609.50;5082508;28;20141;-81